sensor_id;sensor_type;location;lat;lon;timestamp;temperature;humidity
20315;DHT22;10315;50.958;13.080;2023-01-26T00:02:55;0.80;99.90
20315;DHT22;10315;50.958;13.080;2023-01-26T00:12:56;0.70;99.90
20315;DHT22;10315;50.958;13.080;2023-01-26T00:22:59;0.70;99.90
20315;DHT22;10315;50.958;13.080;2023-01-26T00:33:02;0.70;99.90
20315;DHT22;10315;50.958;13.080;2023-01-26T00:43:05;0.60;99.90
20315;DHT22;10315;50.958;13.080;2023-01-26T00:53:07;0.60;99.90
20315;DHT22;10315;50.958;13.080;2023-01-26T01:03:10;0.60;99.90
20315;DHT22;10315;50.958;13.080;2023-01-26T01:13:11;0.60;99.90
20315;DHT22;10315;50.958;13.080;2023-01-26T01:23:14;0.60;99.90
20315;DHT22;10315;50.958;13.080;2023-01-26T01:33:16;0.60;99.90
20315;DHT22;10315;50.958;13.080;2023-01-26T01:43:19;0.60;99.90
20315;DHT22;10315;50.958;13.080;2023-01-26T01:53:26;0.60;99.90
20315;DHT22;10315;50.958;13.080;2023-01-26T02:03:30;0.60;99.90
20315;DHT22;10315;50.958;13.080;2023-01-26T02:13:34;0.50;99.90
20315;DHT22;10315;50.958;13.080;2023-01-26T02:23:49;0.60;99.90
20315;DHT22;10315;50.958;13.080;2023-01-26T02:33:56;0.60;99.90
20315;DHT22;10315;50.958;13.080;2023-01-26T02:43:58;0.60;99.90
20315;DHT22;10315;50.958;13.080;2023-01-26T02:54:00;0.60;99.90
20315;DHT22;10315;50.958;13.080;2023-01-26T03:04:02;0.50;99.90
20315;DHT22;10315;50.958;13.080;2023-01-26T03:14:05;0.50;99.90
20315;DHT22;10315;50.958;13.080;2023-01-26T03:24:10;0.50;99.90
20315;DHT22;10315;50.958;13.080;2023-01-26T03:34:31;0.50;99.90
20315;DHT22;10315;50.958;13.080;2023-01-26T03:44:33;0.50;99.90
20315;DHT22;10315;50.958;13.080;2023-01-26T03:54:53;0.50;99.90
20315;DHT22;10315;50.958;13.080;2023-01-26T04:05:13;0.40;99.90
20315;DHT22;10315;50.958;13.080;2023-01-26T04:15:34;0.40;99.90
20315;DHT22;10315;50.958;13.080;2023-01-26T04:25:54;0.30;99.90
20315;DHT22;10315;50.958;13.080;2023-01-26T04:36:02;0.30;99.90
20315;DHT22;10315;50.958;13.080;2023-01-26T04:46:05;0.30;99.90
20315;DHT22;10315;50.958;13.080;2023-01-26T04:56:18;0.30;99.90
20315;DHT22;10315;50.958;13.080;2023-01-26T05:06:21;0.30;99.90
20315;DHT22;10315;50.958;13.080;2023-01-26T05:16:24;0.30;99.90
20315;DHT22;10315;50.958;13.080;2023-01-26T05:26:26;0.30;99.90
20315;DHT22;10315;50.958;13.080;2023-01-26T05:36:29;0.20;99.90
20315;DHT22;10315;50.958;13.080;2023-01-26T05:46:30;0.20;99.90
20315;DHT22;10315;50.958;13.080;2023-01-26T05:56:33;0.20;99.90
20315;DHT22;10315;50.958;13.080;2023-01-26T06:06:35;0.30;99.90
20315;DHT22;10315;50.958;13.080;2023-01-26T06:16:38;0.20;99.90
20315;DHT22;10315;50.958;13.080;2023-01-26T06:26:39;0.20;99.90
20315;DHT22;10315;50.958;13.080;2023-01-26T06:36:42;0.20;99.90
20315;DHT22;10315;50.958;13.080;2023-01-26T06:46:44;0.20;99.90
20315;DHT22;10315;50.958;13.080;2023-01-26T06:56:47;0.20;99.90
20315;DHT22;10315;50.958;13.080;2023-01-26T07:06:49;0.20;99.90
20315;DHT22;10315;50.958;13.080;2023-01-26T07:16:52;0.20;99.90
20315;DHT22;10315;50.958;13.080;2023-01-26T07:26:54;0.30;99.90
20315;DHT22;10315;50.958;13.080;2023-01-26T07:36:57;0.40;99.90
20315;DHT22;10315;50.958;13.080;2023-01-26T07:46:58;0.50;99.90
20315;DHT22;10315;50.958;13.080;2023-01-26T07:57:01;0.50;99.90
20315;DHT22;10315;50.958;13.080;2023-01-26T08:07:06;0.50;99.90
20315;DHT22;10315;50.958;13.080;2023-01-26T08:17:09;0.60;99.90
20315;DHT22;10315;50.958;13.080;2023-01-26T08:27:10;0.70;99.90
20315;DHT22;10315;50.958;13.080;2023-01-26T08:37:13;0.90;99.90
20315;DHT22;10315;50.958;13.080;2023-01-26T08:47:15;1.00;99.90
20315;DHT22;10315;50.958;13.080;2023-01-26T08:57:18;1.10;99.90
20315;DHT22;10315;50.958;13.080;2023-01-26T09:07:19;1.40;99.90
20315;DHT22;10315;50.958;13.080;2023-01-26T09:17:22;1.40;99.90
20315;DHT22;10315;50.958;13.080;2023-01-26T09:27:24;1.40;99.90
20315;DHT22;10315;50.958;13.080;2023-01-26T09:37:27;1.60;99.90
20315;DHT22;10315;50.958;13.080;2023-01-26T09:47:33;1.60;99.90
20315;DHT22;10315;50.958;13.080;2023-01-26T09:57:42;1.60;99.90
20315;DHT22;10315;50.958;13.080;2023-01-26T10:07:47;1.60;99.90
20315;DHT22;10315;50.958;13.080;2023-01-26T10:17:51;1.60;99.90
20315;DHT22;10315;50.958;13.080;2023-01-26T10:27:54;1.50;99.90
20315;DHT22;10315;50.958;13.080;2023-01-26T10:37:57;1.30;99.90
20315;DHT22;10315;50.958;13.080;2023-01-26T10:48:04;1.20;99.90
20315;DHT22;10315;50.958;13.080;2023-01-26T10:58:33;1.40;99.90
20315;DHT22;10315;50.958;13.080;2023-01-26T11:08:39;1.50;99.90
20315;DHT22;10315;50.958;13.080;2023-01-26T11:18:50;1.50;99.90
20315;DHT22;10315;50.958;13.080;2023-01-26T11:29:05;1.40;99.90
20315;DHT22;10315;50.958;13.080;2023-01-26T11:39:17;1.50;99.90
20315;DHT22;10315;50.958;13.080;2023-01-26T11:49:39;1.50;99.90
20315;DHT22;10315;50.958;13.080;2023-01-26T11:59:48;1.40;99.90
20315;DHT22;10315;50.958;13.080;2023-01-26T12:09:52;1.10;99.90
20315;DHT22;10315;50.958;13.080;2023-01-26T12:20:00;1.30;99.90
20315;DHT22;10315;50.958;13.080;2023-01-26T12:30:14;1.30;99.90
20315;DHT22;10315;50.958;13.080;2023-01-26T12:40:28;1.30;99.90
20315;DHT22;10315;50.958;13.080;2023-01-26T12:50:35;1.20;99.90
20315;DHT22;10315;50.958;13.080;2023-01-26T13:00:40;1.30;99.90
20315;DHT22;10315;50.958;13.080;2023-01-26T13:10:51;1.40;99.90
20315;DHT22;10315;50.958;13.080;2023-01-26T13:20:54;1.50;99.90
20315;DHT22;10315;50.958;13.080;2023-01-26T13:31:02;1.30;99.90
20315;DHT22;10315;50.958;13.080;2023-01-26T13:41:08;1.20;99.90
20315;DHT22;10315;50.958;13.080;2023-01-26T13:51:14;1.20;99.90
20315;DHT22;10315;50.958;13.080;2023-01-26T14:01:19;1.10;99.90
20315;DHT22;10315;50.958;13.080;2023-01-26T14:11:23;1.00;99.90
20315;DHT22;10315;50.958;13.080;2023-01-26T14:21:26;0.80;99.90
20315;DHT22;10315;50.958;13.080;2023-01-26T14:31:28;0.80;99.90
20315;DHT22;10315;50.958;13.080;2023-01-26T14:41:34;0.90;99.90
20315;DHT22;10315;50.958;13.080;2023-01-26T14:51:37;0.80;99.90
20315;DHT22;10315;50.958;13.080;2023-01-26T15:01:40;0.60;99.90
20315;DHT22;10315;50.958;13.080;2023-01-26T15:11:42;0.40;99.90
20315;DHT22;10315;50.958;13.080;2023-01-26T15:22:03;0.20;99.90
20315;DHT22;10315;50.958;13.080;2023-01-26T15:32:05;0.20;99.90
20315;DHT22;10315;50.958;13.080;2023-01-26T15:42:12;-0.10;99.90
20315;DHT22;10315;50.958;13.080;2023-01-26T15:52:15;-0.20;99.90
20315;DHT22;10315;50.958;13.080;2023-01-26T16:02:20;-0.10;99.90
20315;DHT22;10315;50.958;13.080;2023-01-26T16:12:21;-0.30;99.90
20315;DHT22;10315;50.958;13.080;2023-01-26T16:22:24;-0.20;99.90
20315;DHT22;10315;50.958;13.080;2023-01-26T16:32:27;-0.30;99.90
20315;DHT22;10315;50.958;13.080;2023-01-26T16:42:31;-0.40;99.90
20315;DHT22;10315;50.958;13.080;2023-01-26T16:52:33;-0.40;99.90
20315;DHT22;10315;50.958;13.080;2023-01-26T17:02:36;-0.50;99.90
20315;DHT22;10315;50.958;13.080;2023-01-26T17:12:38;-0.50;99.90
20315;DHT22;10315;50.958;13.080;2023-01-26T17:22:41;-0.50;99.90
20315;DHT22;10315;50.958;13.080;2023-01-26T17:32:42;-0.50;99.90
20315;DHT22;10315;50.958;13.080;2023-01-26T17:42:45;-0.60;99.90
20315;DHT22;10315;50.958;13.080;2023-01-26T17:52:47;-0.50;99.90
20315;DHT22;10315;50.958;13.080;2023-01-26T18:02:55;-0.60;99.90
20315;DHT22;10315;50.958;13.080;2023-01-26T18:12:57;-0.60;99.90
20315;DHT22;10315;50.958;13.080;2023-01-26T18:22:59;-0.60;99.90
20315;DHT22;10315;50.958;13.080;2023-01-26T18:33:01;-0.70;99.90
20315;DHT22;10315;50.958;13.080;2023-01-26T18:43:04;-0.70;99.90
20315;DHT22;10315;50.958;13.080;2023-01-26T18:53:06;-0.70;99.90
20315;DHT22;10315;50.958;13.080;2023-01-26T19:03:09;-0.60;99.90
20315;DHT22;10315;50.958;13.080;2023-01-26T19:13:10;-0.60;99.90
20315;DHT22;10315;50.958;13.080;2023-01-26T19:23:13;-0.60;99.90
20315;DHT22;10315;50.958;13.080;2023-01-26T19:33:15;-0.60;99.90
20315;DHT22;10315;50.958;13.080;2023-01-26T19:43:29;-0.70;99.90
20315;DHT22;10315;50.958;13.080;2023-01-26T19:53:31;-0.60;99.90
20315;DHT22;10315;50.958;13.080;2023-01-26T20:03:35;-0.60;99.90
20315;DHT22;10315;50.958;13.080;2023-01-26T20:13:37;-0.60;99.90
20315;DHT22;10315;50.958;13.080;2023-01-26T20:23:40;-0.70;99.90
20315;DHT22;10315;50.958;13.080;2023-01-26T20:33:43;-0.70;99.90
20315;DHT22;10315;50.958;13.080;2023-01-26T20:43:48;-0.70;99.90
20315;DHT22;10315;50.958;13.080;2023-01-26T20:53:50;-0.80;99.90
20315;DHT22;10315;50.958;13.080;2023-01-26T21:03:53;-0.80;99.90
20315;DHT22;10315;50.958;13.080;2023-01-26T21:13:55;-0.80;99.90
20315;DHT22;10315;50.958;13.080;2023-01-26T21:23:58;-0.80;99.90
20315;DHT22;10315;50.958;13.080;2023-01-26T21:34:00;-0.90;99.90
20315;DHT22;10315;50.958;13.080;2023-01-26T21:44:05;-0.90;99.90
20315;DHT22;10315;50.958;13.080;2023-01-26T21:54:06;-0.90;99.90
20315;DHT22;10315;50.958;13.080;2023-01-26T22:04:11;-1.00;99.90
20315;DHT22;10315;50.958;13.080;2023-01-26T22:14:15;-1.00;99.90
20315;DHT22;10315;50.958;13.080;2023-01-26T22:24:18;-1.00;99.90
20315;DHT22;10315;50.958;13.080;2023-01-26T22:34:20;-1.00;99.90
20315;DHT22;10315;50.958;13.080;2023-01-26T22:44:23;-1.00;99.90
20315;DHT22;10315;50.958;13.080;2023-01-26T22:54:24;-1.00;99.90
20315;DHT22;10315;50.958;13.080;2023-01-26T23:04:28;-1.00;99.90
20315;DHT22;10315;50.958;13.080;2023-01-26T23:14:30;-1.00;99.90
20315;DHT22;10315;50.958;13.080;2023-01-26T23:24:34;-1.00;99.90
20315;DHT22;10315;50.958;13.080;2023-01-26T23:34:36;-1.00;99.90
20315;DHT22;10315;50.958;13.080;2023-01-26T23:44:39;-1.00;99.90
20315;DHT22;10315;50.958;13.080;2023-01-26T23:54:41;-1.00;99.90
